createdAt,value
2018-03-22T00:01:36.204Z,-6.40
2018-03-22T00:04:02.785Z,-6.40
2018-03-22T00:06:29.332Z,-6.30
2018-03-22T00:08:55.854Z,-6.30
2018-03-22T00:11:23.159Z,-6.40
2018-03-22T00:13:49.663Z,-6.40
2018-03-22T00:16:16.264Z,-6.40
2018-03-22T00:18:43.529Z,-6.40
2018-03-22T00:21:10.900Z,-6.40
2018-03-22T00:23:37.483Z,-6.40
2018-03-22T00:26:04.002Z,-6.40
2018-03-22T00:28:30.606Z,-6.40
2018-03-22T00:30:57.899Z,-6.50
2018-03-22T00:33:24.475Z,-6.50
2018-03-22T00:35:51.094Z,-6.50
2018-03-22T00:38:18.393Z,-6.50
2018-03-22T00:40:45.016Z,-6.50
2018-03-22T00:43:12.279Z,-6.40
2018-03-22T00:45:38.817Z,-6.40
2018-03-22T00:48:06.102Z,-6.40
2018-03-22T00:50:32.632Z,-6.40
2018-03-22T00:52:59.190Z,-6.40
2018-03-22T00:55:25.746Z,-6.40
2018-03-22T00:57:52.246Z,-6.30
2018-03-22T01:00:18.838Z,-6.30
2018-03-22T01:02:46.109Z,-6.30
2018-03-22T01:05:13.386Z,-6.30
2018-03-22T01:07:39.917Z,-6.30
2018-03-22T01:10:06.503Z,-6.30
2018-03-22T01:12:33.754Z,-6.30
2018-03-22T01:15:01.072Z,-6.30
2018-03-22T01:17:27.609Z,-6.40
2018-03-22T01:19:54.208Z,-6.30
2018-03-22T01:22:21.499Z,-6.40
2018-03-22T01:24:48.062Z,-6.40
2018-03-22T01:27:14.578Z,-6.40
2018-03-22T01:29:41.152Z,-6.40
2018-03-22T01:32:08.438Z,-6.50
2018-03-22T01:34:35.041Z,-6.50
2018-03-22T01:37:01.555Z,-6.50
2018-03-22T01:39:28.121Z,-6.50
2018-03-22T01:41:54.635Z,-6.50
2018-03-22T01:44:21.205Z,-6.60
2018-03-22T01:46:48.459Z,-6.60
2018-03-22T01:49:15.770Z,-6.60
2018-03-22T01:51:42.296Z,-6.60
2018-03-22T01:54:08.866Z,-6.60
2018-03-22T01:56:35.398Z,-6.60
2018-03-22T01:59:01.950Z,-6.60
2018-03-22T02:01:28.485Z,-6.60
2018-03-22T02:03:55.027Z,-6.70
2018-03-22T02:06:21.558Z,-6.70
2018-03-22T02:08:48.058Z,-6.70
2018-03-22T02:11:14.605Z,-6.70
2018-03-22T02:13:41.165Z,-6.80
2018-03-22T02:16:07.822Z,-6.80
2018-03-22T02:18:35.078Z,-6.90
2018-03-22T02:21:01.732Z,-6.90
2018-03-22T02:23:28.278Z,-6.90
2018-03-22T02:25:54.881Z,-6.90
2018-03-22T02:28:22.195Z,-7.00
2018-03-22T02:30:48.788Z,-7.00
2018-03-22T02:33:15.349Z,-7.00
2018-03-22T02:35:41.947Z,-7.00
2018-03-22T02:38:08.524Z,-7.00
2018-03-22T02:40:35.093Z,-7.00
2018-03-22T02:43:01.645Z,-7.10
2018-03-22T02:45:28.978Z,-7.10
2018-03-22T02:47:55.591Z,-7.10
2018-03-22T02:50:23.209Z,-7.10
2018-03-22T02:52:50.497Z,-7.10
2018-03-22T02:55:17.078Z,-7.10
2018-03-22T02:57:43.664Z,-7.10
2018-03-22T03:00:10.277Z,-7.10
2018-03-22T03:02:37.844Z,-7.10
2018-03-22T03:05:04.443Z,-7.10
2018-03-22T03:07:30.987Z,-7.10
2018-03-22T03:09:58.310Z,-7.20
2018-03-22T03:12:24.864Z,-7.20
2018-03-22T03:14:51.485Z,-7.20
2018-03-22T03:17:18.038Z,-7.20
2018-03-22T03:19:44.637Z,-7.20
2018-03-22T03:22:11.257Z,-7.30
2018-03-22T03:24:37.848Z,-7.30
2018-03-22T03:27:04.427Z,-7.30
2018-03-22T03:29:31.679Z,-7.30
2018-03-22T03:31:58.987Z,-7.40
2018-03-22T03:34:25.523Z,-7.30
2018-03-22T03:36:52.111Z,-7.40
2018-03-22T03:39:19.395Z,-7.30
2018-03-22T03:41:45.974Z,-7.40
2018-03-22T03:44:12.556Z,-7.30
2018-03-22T03:46:39.135Z,-7.30
2018-03-22T03:49:05.672Z,-7.30
2018-03-22T03:51:32.242Z,-7.30
2018-03-22T03:53:59.535Z,-7.30
2018-03-22T03:56:26.115Z,-7.30
2018-03-22T03:58:52.679Z,-7.30
2018-03-22T04:01:19.952Z,-7.30
2018-03-22T04:04:02.542Z,-7.30
2018-03-22T04:06:29.827Z,-7.30
2018-03-22T04:08:56.420Z,-7.30
2018-03-22T04:11:22.995Z,-7.30
2018-03-22T04:13:49.627Z,-7.30
2018-03-22T04:16:16.187Z,-7.30
2018-03-22T04:18:43.198Z,-7.30
2018-03-22T04:21:17.810Z,-7.20
2018-03-22T04:23:44.405Z,-7.20
2018-03-22T04:26:12.989Z,-7.20
2018-03-22T04:28:39.584Z,-7.20
2018-03-22T04:31:27.631Z,-7.20
2018-03-22T04:33:54.946Z,-7.20
2018-03-22T04:36:21.503Z,-7.20
2018-03-22T04:38:48.818Z,-7.10
2018-03-22T04:41:15.371Z,-7.10
2018-03-22T04:43:41.943Z,-7.10
2018-03-22T04:46:09.557Z,-7.00
2018-03-22T04:48:36.104Z,-7.00
2018-03-22T04:51:10.550Z,-6.90
2018-03-22T04:53:37.113Z,-6.80
2018-03-22T04:56:17.687Z,-6.80
2018-03-22T04:58:44.283Z,-6.80
2018-03-22T05:01:17.904Z,-6.80
2018-03-22T05:03:45.201Z,-6.70
2018-03-22T05:06:11.767Z,-6.70
2018-03-22T05:08:38.348Z,-6.70
2018-03-22T05:11:06.607Z,-6.60
2018-03-22T05:13:33.251Z,-6.60
2018-03-22T05:15:59.810Z,-6.50
2018-03-22T05:18:26.440Z,-6.50
2018-03-22T05:20:52.971Z,-6.40
2018-03-22T05:23:19.536Z,-6.40
2018-03-22T05:25:46.102Z,-6.40
2018-03-22T05:28:12.692Z,-6.40
2018-03-22T05:30:39.255Z,-6.40
2018-03-22T05:33:05.786Z,-6.40
2018-03-22T05:35:32.451Z,-6.40
2018-03-22T05:37:59.025Z,-6.30
2018-03-22T05:40:26.388Z,-6.10
2018-03-22T05:42:53.732Z,-6.00
2018-03-22T05:45:21.077Z,-6.00
2018-03-22T05:47:48.396Z,-5.90
2018-03-22T05:50:14.968Z,-5.90
2018-03-22T05:52:41.502Z,-5.80
2018-03-22T05:55:08.951Z,-5.80
2018-03-22T05:57:35.500Z,-5.70
2018-03-22T06:00:02.911Z,-5.50
2018-03-22T06:02:29.500Z,-5.50
2018-03-22T06:04:56.085Z,-5.50
2018-03-22T06:07:22.636Z,-5.40
2018-03-22T06:09:49.271Z,-5.30
2018-03-22T06:12:16.623Z,-5.20
2018-03-22T06:14:43.215Z,-5.10
2018-03-22T06:17:09.827Z,-5.00
2018-03-22T06:19:37.195Z,-4.80
2018-03-22T06:22:04.467Z,-4.80
2018-03-22T06:24:31.583Z,-4.80
2018-03-22T06:26:58.142Z,-4.70
2018-03-22T06:29:25.571Z,-4.50
2018-03-22T06:31:52.173Z,-4.50
2018-03-22T06:34:18.792Z,-4.40
2018-03-22T06:36:45.375Z,-4.30
2018-03-22T06:39:11.947Z,-4.30
2018-03-22T06:41:39.269Z,-4.10
2018-03-22T06:44:05.916Z,-4.10
2018-03-22T06:46:32.591Z,-4.00
2018-03-22T06:48:59.207Z,-3.80
2018-03-22T06:51:25.834Z,-3.60
2018-03-22T06:53:52.431Z,-3.40
2018-03-22T06:56:18.975Z,-3.10
2018-03-22T06:58:45.603Z,-2.90
2018-03-22T07:01:12.993Z,-2.60
2018-03-22T07:03:39.579Z,-2.60
2018-03-22T07:06:06.148Z,-2.50
2018-03-22T07:08:32.724Z,-2.40
2018-03-22T07:10:59.284Z,-2.40
2018-03-22T07:13:25.875Z,-2.30
2018-03-22T07:15:52.447Z,-2.20
2018-03-22T07:18:19.760Z,-2.10
2018-03-22T07:20:46.356Z,-2.10
2018-03-22T07:23:13.646Z,-1.80
2018-03-22T07:25:40.242Z,-1.80
2018-03-22T07:28:07.552Z,-1.50
2018-03-22T07:30:34.125Z,-1.50
2018-03-22T07:33:00.772Z,-1.30
2018-03-22T07:35:28.133Z,-1.10
2018-03-22T07:37:54.727Z,-1.10
2018-03-22T07:40:21.346Z,-1.00
2018-03-22T07:42:54.659Z,-0.80
2018-03-22T07:45:21.281Z,-0.70
2018-03-22T07:47:47.887Z,-0.60
2018-03-22T07:50:14.539Z,-0.50
2018-03-22T07:52:41.167Z,-0.40
2018-03-22T07:55:07.763Z,-0.40
2018-03-22T07:57:34.311Z,-0.40
2018-03-22T08:00:01.660Z,-0.30
2018-03-22T08:02:29.019Z,-0.40
2018-03-22T08:04:55.580Z,-0.40
2018-03-22T08:07:22.213Z,-0.30
2018-03-22T08:09:48.799Z,-0.30
2018-03-22T08:12:15.415Z,-0.20
2018-03-22T08:14:42.029Z,-0.20
2018-03-22T08:17:08.623Z,-0.10
2018-03-22T08:19:35.218Z,0.00
2018-03-22T08:22:01.803Z,0.20
2018-03-22T08:24:28.412Z,0.40
2018-03-22T08:26:54.968Z,0.50
2018-03-22T08:29:21.551Z,0.60
2018-03-22T08:31:48.131Z,0.60
2018-03-22T08:34:14.870Z,0.70
2018-03-22T08:36:42.213Z,0.70
2018-03-22T08:39:08.855Z,0.70
2018-03-22T08:41:35.415Z,0.70
2018-03-22T08:44:02.038Z,0.80
2018-03-22T08:46:28.639Z,0.90
2018-03-22T08:48:55.264Z,0.90
2018-03-22T08:51:21.861Z,1.10
2018-03-22T08:53:48.396Z,1.10
2018-03-22T08:56:14.992Z,1.20
2018-03-22T08:58:42.280Z,1.30
2018-03-22T09:01:08.853Z,1.40
2018-03-22T09:03:36.207Z,1.50
2018-03-22T09:06:02.812Z,1.50
2018-03-22T09:08:29.403Z,1.50
2018-03-22T09:10:55.994Z,1.60
2018-03-22T09:13:22.647Z,1.80
2018-03-22T09:15:49.232Z,1.80
2018-03-22T09:18:15.819Z,2.00
2018-03-22T09:20:42.420Z,2.10
2018-03-22T09:23:08.970Z,2.20
2018-03-22T09:25:35.568Z,2.40
2018-03-22T09:28:02.155Z,2.50
2018-03-22T09:30:28.757Z,3.10
2018-03-22T09:32:55.371Z,3.70
2018-03-22T09:35:22.719Z,5.10
2018-03-22T09:37:49.268Z,5.00
2018-03-22T09:40:15.863Z,5.30
2018-03-22T09:42:42.494Z,5.30
2018-03-22T09:45:09.079Z,5.10
2018-03-22T09:47:35.695Z,4.90
2018-03-22T09:50:02.349Z,4.80
2018-03-22T09:52:28.935Z,4.70
2018-03-22T09:54:56.242Z,4.60
2018-03-22T09:57:22.890Z,4.60
2018-03-22T09:59:50.246Z,4.60
2018-03-22T10:02:17.535Z,4.60
2018-03-22T10:04:44.137Z,4.50
2018-03-22T10:07:10.676Z,4.60
2018-03-22T10:09:37.997Z,4.60
2018-03-22T10:12:04.546Z,4.60
2018-03-22T10:14:31.139Z,4.80
2018-03-22T10:16:57.729Z,4.80
2018-03-22T10:19:24.275Z,4.80
2018-03-22T10:21:50.872Z,5.00
2018-03-22T10:24:17.439Z,5.00
2018-03-22T10:26:44.778Z,4.80
2018-03-22T10:29:11.336Z,4.80
2018-03-22T10:31:37.911Z,4.80
2018-03-22T10:34:04.498Z,4.80
2018-03-22T10:36:31.061Z,5.00
2018-03-22T10:38:57.740Z,5.10
2018-03-22T10:41:24.379Z,5.10
2018-03-22T10:43:50.963Z,5.20
2018-03-22T10:46:17.541Z,5.10
2018-03-22T10:48:44.078Z,5.30
2018-03-22T10:51:10.712Z,5.40
2018-03-22T10:53:37.978Z,5.60
2018-03-22T10:56:04.606Z,5.60
2018-03-22T10:58:31.147Z,5.60
2018-03-22T11:01:03.732Z,5.70
2018-03-22T11:03:30.306Z,5.90
2018-03-22T11:05:56.854Z,6.00
2018-03-22T11:08:23.444Z,6.20
2018-03-22T11:10:50.087Z,6.10
2018-03-22T11:13:16.707Z,6.00
2018-03-22T11:15:43.286Z,5.90
2018-03-22T11:18:09.896Z,5.70
2018-03-22T11:20:36.454Z,5.40
2018-03-22T11:23:03.007Z,5.30
2018-03-22T11:25:29.604Z,5.30
2018-03-22T11:27:56.208Z,5.20
2018-03-22T11:30:22.809Z,5.30
2018-03-22T11:32:49.388Z,5.40
2018-03-22T11:35:15.946Z,5.40
2018-03-22T11:37:43.268Z,5.60
2018-03-22T11:40:09.847Z,5.50
2018-03-22T11:42:36.416Z,5.50
2018-03-22T11:45:03.021Z,5.60
2018-03-22T11:47:29.563Z,5.60
2018-03-22T11:49:56.187Z,5.60
2018-03-22T11:52:22.728Z,5.50
2018-03-22T11:54:49.343Z,5.40
2018-03-22T11:57:16.696Z,5.30
2018-03-22T11:59:43.232Z,5.30
2018-03-22T12:02:09.826Z,5.20
2018-03-22T12:04:36.378Z,5.10
2018-03-22T12:07:02.948Z,5.00
2018-03-22T12:09:30.237Z,4.70
2018-03-22T12:11:56.846Z,4.70
2018-03-22T12:14:24.143Z,4.50
2018-03-22T12:16:50.704Z,4.40
2018-03-22T12:19:17.304Z,4.30
2018-03-22T12:21:43.908Z,4.20
2018-03-22T12:24:10.492Z,4.20
2018-03-22T12:26:37.076Z,4.10
2018-03-22T12:29:03.722Z,4.00
2018-03-22T12:31:31.340Z,4.00
2018-03-22T12:33:57.887Z,4.00
2018-03-22T12:36:24.473Z,4.00
2018-03-22T12:38:51.790Z,3.70
2018-03-22T12:41:18.399Z,3.70
2018-03-22T12:43:45.025Z,3.50
2018-03-22T12:46:12.315Z,3.20
2018-03-22T12:48:38.857Z,3.20
2018-03-22T12:51:05.453Z,3.00
2018-03-22T12:53:32.024Z,2.80
2018-03-22T12:55:58.608Z,2.80
2018-03-22T12:58:25.956Z,2.70
2018-03-22T13:00:53.304Z,2.60
2018-03-22T13:03:20.620Z,2.50
2018-03-22T13:08:43.649Z,2.50
2018-03-22T13:11:10.279Z,2.50
2018-03-22T13:13:37.574Z,2.60
2018-03-22T13:16:04.201Z,2.60
2018-03-22T13:18:30.762Z,2.70
2018-03-22T13:20:57.354Z,2.70
2018-03-22T13:23:23.947Z,2.70
2018-03-22T13:25:50.511Z,2.60
2018-03-22T13:28:17.075Z,2.60
2018-03-22T13:30:43.611Z,2.60
2018-03-22T13:33:10.931Z,2.50
2018-03-22T13:35:37.475Z,2.50
2018-03-22T13:38:04.044Z,2.60
2018-03-22T13:40:30.587Z,2.60
2018-03-22T13:42:57.116Z,2.70
2018-03-22T13:45:23.687Z,2.80
2018-03-22T13:47:50.252Z,2.80
2018-03-22T13:50:16.908Z,2.90
2018-03-22T13:52:44.199Z,3.00
2018-03-22T13:55:10.770Z,2.90
2018-03-22T13:57:37.407Z,2.90
2018-03-22T14:00:04.063Z,3.00
2018-03-22T14:02:30.622Z,2.90
2018-03-22T14:04:57.902Z,3.00
2018-03-22T14:07:24.484Z,3.00
2018-03-22T14:09:51.820Z,3.00
2018-03-22T14:12:18.442Z,3.00
2018-03-22T14:14:45.003Z,2.80
2018-03-22T14:17:11.581Z,2.80
2018-03-22T14:19:38.183Z,2.70
2018-03-22T14:22:05.554Z,2.50
2018-03-22T14:24:32.153Z,2.50
2018-03-22T14:26:59.714Z,2.50
2018-03-22T14:29:26.307Z,2.40
2018-03-22T14:31:52.847Z,2.30
2018-03-22T14:34:20.165Z,2.10
2018-03-22T14:36:46.791Z,2.10
2018-03-22T14:39:13.347Z,2.00
2018-03-22T14:41:39.947Z,1.90
2018-03-22T14:44:06.489Z,1.80
2018-03-22T14:46:33.076Z,1.70
2018-03-22T14:48:59.659Z,1.70
2018-03-22T14:51:26.231Z,1.60
2018-03-22T14:53:52.809Z,1.60
2018-03-22T14:56:20.125Z,1.50
2018-03-22T14:58:46.704Z,1.50
2018-03-22T15:01:14.008Z,1.50
2018-03-22T15:03:40.584Z,1.50
2018-03-22T15:06:07.123Z,1.50
2018-03-22T15:08:33.659Z,1.50
2018-03-22T15:11:00.958Z,1.50
2018-03-22T15:13:27.562Z,1.50
2018-03-22T15:15:54.259Z,1.50
2018-03-22T15:18:20.812Z,1.50
2018-03-22T15:20:47.390Z,1.50
2018-03-22T15:23:13.924Z,1.50
2018-03-22T15:25:40.511Z,1.50
2018-03-22T15:28:07.115Z,1.50
2018-03-22T15:30:33.685Z,1.50
2018-03-22T15:33:00.259Z,1.50
2018-03-22T15:35:27.536Z,1.50
2018-03-22T15:37:54.122Z,1.50
2018-03-22T15:40:21.496Z,1.40
2018-03-22T15:42:48.046Z,1.40
2018-03-22T15:45:15.506Z,1.30
2018-03-22T15:47:42.107Z,1.30
2018-03-22T15:50:08.783Z,1.30
2018-03-22T15:52:36.099Z,1.10
2018-03-22T15:55:02.753Z,1.10
2018-03-22T15:57:29.359Z,1.10
2018-03-22T15:59:55.899Z,1.10
2018-03-22T16:02:22.460Z,1.00
2018-03-22T16:04:49.030Z,1.00
2018-03-22T16:07:16.333Z,0.90
2018-03-22T16:09:43.037Z,0.80
2018-03-22T16:12:10.591Z,0.80
2018-03-22T16:14:37.148Z,0.80
2018-03-22T16:17:03.808Z,0.80
2018-03-22T16:19:30.406Z,0.80
2018-03-22T16:21:56.975Z,0.80
2018-03-22T16:24:23.512Z,0.80
2018-03-22T16:26:50.152Z,0.80
2018-03-22T16:29:16.764Z,0.80
2018-03-22T16:31:44.039Z,0.70
2018-03-22T16:34:10.623Z,0.70
2018-03-22T16:36:37.213Z,0.70
2018-03-22T16:39:03.898Z,0.70
2018-03-22T16:41:30.431Z,0.60
2018-03-22T16:43:57.016Z,0.60
2018-03-22T16:46:23.614Z,0.60
2018-03-22T16:48:51.006Z,0.50
2018-03-22T16:51:17.575Z,0.50
2018-03-22T16:53:44.566Z,0.50
2018-03-22T16:56:11.266Z,0.50
2018-03-22T16:58:38.310Z,0.50
2018-03-22T17:01:05.171Z,0.40
2018-03-22T17:03:32.588Z,0.40
2018-03-22T17:05:59.203Z,0.40
2018-03-22T17:08:25.812Z,0.40
2018-03-22T17:10:52.434Z,0.40
2018-03-22T17:13:18.997Z,0.40
2018-03-22T17:15:46.340Z,0.30
2018-03-22T17:18:12.994Z,0.30
2018-03-22T17:20:39.619Z,0.30
2018-03-22T17:23:06.184Z,0.30
2018-03-22T17:25:33.482Z,0.30
2018-03-22T17:28:00.043Z,0.30
2018-03-22T17:30:26.727Z,0.30
2018-03-22T17:32:53.254Z,0.20
2018-03-22T17:35:19.843Z,0.20
2018-03-22T17:37:46.379Z,0.20
2018-03-22T17:40:12.972Z,0.20
2018-03-22T17:42:39.531Z,0.20
2018-03-22T17:45:06.207Z,0.20
2018-03-22T17:47:32.748Z,0.20
2018-03-22T17:49:59.406Z,0.20
2018-03-22T17:52:35.675Z,0.10
2018-03-22T17:55:06.218Z,0.10
2018-03-22T17:57:32.778Z,0.10
2018-03-22T17:59:59.339Z,0.00
2018-03-22T18:02:33.834Z,0.00
2018-03-22T18:05:09.339Z,0.00
2018-03-22T18:07:50.892Z,0.00
2018-03-22T18:10:17.462Z,0.00
2018-03-22T18:15:41.372Z,0.00
2018-03-22T18:18:08.719Z,-0.10
2018-03-22T18:20:35.992Z,-0.10
2018-03-22T18:23:03.312Z,-0.10
2018-03-22T18:25:33.758Z,-0.10
2018-03-22T18:28:01.373Z,-0.10
2018-03-22T18:30:28.979Z,-0.20
2018-03-22T18:32:55.538Z,-0.10
2018-03-22T18:35:22.207Z,-0.10
2018-03-22T18:37:49.444Z,-0.10
2018-03-22T18:40:16.011Z,-0.20
2018-03-22T18:42:42.584Z,-0.10
2018-03-22T18:45:09.124Z,-0.10
2018-03-22T18:47:36.435Z,-0.10
2018-03-22T18:50:03.137Z,-0.10
2018-03-22T18:52:30.447Z,-0.10
2018-03-22T18:54:57.043Z,-0.10
2018-03-22T18:57:23.630Z,-0.10
2018-03-22T18:59:50.174Z,-0.10
2018-03-22T19:02:16.731Z,-0.10
2018-03-22T19:04:44.075Z,-0.10
2018-03-22T19:07:11.391Z,-0.10
2018-03-22T19:09:37.917Z,-0.10
2018-03-22T19:12:04.504Z,-0.10
2018-03-22T19:14:31.784Z,-0.10
2018-03-22T19:16:58.395Z,-0.10
2018-03-22T19:19:25.678Z,-0.10
2018-03-22T19:21:52.326Z,-0.10
2018-03-22T19:24:18.911Z,0.00
2018-03-22T19:26:46.222Z,-0.10
2018-03-22T19:29:12.814Z,-0.10
2018-03-22T19:31:39.367Z,-0.10
2018-03-22T19:34:06.705Z,-0.10
2018-03-22T19:36:33.256Z,-0.10
2018-03-22T19:39:00.595Z,-0.10
2018-03-22T19:41:38.059Z,-0.10
2018-03-22T19:44:04.650Z,0.00
2018-03-22T19:46:31.306Z,-0.10
2018-03-22T19:48:58.648Z,-0.10
2018-03-22T19:51:25.215Z,-0.10
2018-03-22T19:53:51.786Z,0.00
2018-03-22T19:56:18.308Z,0.00
2018-03-22T19:58:44.891Z,-0.10
2018-03-22T20:01:12.192Z,-0.10
2018-03-22T20:03:38.759Z,-0.10
2018-03-22T20:06:05.304Z,-0.10
2018-03-22T20:08:31.925Z,-0.10
2018-03-22T20:10:58.475Z,0.00
2018-03-22T20:13:25.124Z,-0.10
2018-03-22T20:15:52.442Z,-0.10
2018-03-22T20:18:19.015Z,0.00
2018-03-22T20:20:46.335Z,0.00
2018-03-22T20:23:12.907Z,0.00
2018-03-22T20:25:39.450Z,0.00
2018-03-22T20:28:06.775Z,-0.10
2018-03-22T20:30:33.367Z,-0.10
2018-03-22T20:33:00.723Z,0.00
2018-03-22T20:35:27.329Z,0.00
2018-03-22T20:37:53.892Z,-0.10
2018-03-22T20:40:21.226Z,-0.10
2018-03-22T20:42:48.527Z,-0.10
2018-03-22T20:45:15.273Z,-0.10
2018-03-22T20:47:41.841Z,-0.10
2018-03-22T20:50:08.427Z,-0.10
2018-03-22T20:52:34.990Z,-0.10
2018-03-22T20:55:01.574Z,0.00
2018-03-22T20:57:28.121Z,-0.10
2018-03-22T20:59:55.451Z,0.00
2018-03-22T21:02:22.042Z,0.00
2018-03-22T21:04:48.604Z,0.00
2018-03-22T21:07:15.163Z,-0.10
2018-03-22T21:09:42.506Z,-0.10
2018-03-22T21:12:09.064Z,-0.10
2018-03-22T21:14:35.657Z,0.00
2018-03-22T21:17:02.265Z,0.00
2018-03-22T21:19:28.826Z,-0.10
2018-03-22T21:21:56.198Z,-0.10
2018-03-22T21:24:22.760Z,-0.10
2018-03-22T21:26:49.347Z,0.00
2018-03-22T21:29:15.927Z,0.00
2018-03-22T21:31:42.471Z,0.00
2018-03-22T21:34:09.038Z,0.00
2018-03-22T21:36:36.318Z,0.00
2018-03-22T21:39:03.214Z,0.00
2018-03-22T21:41:29.835Z,0.00
2018-03-22T21:44:08.391Z,0.00
2018-03-22T21:46:35.664Z,0.00
2018-03-22T21:49:02.282Z,0.00
2018-03-22T21:51:29.647Z,0.00
2018-03-22T21:53:56.175Z,0.00
2018-03-22T21:56:22.774Z,0.00
2018-03-22T21:58:49.310Z,0.00
2018-03-22T22:01:15.871Z,0.00
2018-03-22T22:03:42.437Z,0.00
2018-03-22T22:06:08.970Z,0.00
2018-03-22T22:08:35.587Z,0.00
2018-03-22T22:11:02.178Z,0.00
2018-03-22T22:13:28.819Z,0.00
2018-03-22T22:15:55.368Z,0.00
2018-03-22T22:18:21.923Z,0.00
2018-03-22T22:20:48.503Z,0.00
2018-03-22T22:23:15.053Z,0.00
2018-03-22T22:25:41.639Z,0.00
2018-03-22T22:28:08.163Z,0.00
2018-03-22T22:30:34.746Z,0.00
2018-03-22T22:33:01.295Z,0.00
2018-03-22T22:35:27.840Z,0.00
2018-03-22T22:37:54.431Z,0.00
2018-03-22T22:40:21.734Z,0.00
2018-03-22T22:42:48.315Z,0.00
2018-03-22T22:45:14.861Z,0.00
2018-03-22T22:47:41.403Z,0.00
2018-03-22T22:50:08.692Z,0.10
2018-03-22T22:52:35.222Z,0.00
2018-03-22T22:55:01.800Z,0.00
2018-03-22T22:57:29.133Z,0.00
2018-03-22T22:59:55.720Z,0.00
2018-03-22T23:02:22.284Z,0.10
2018-03-22T23:04:48.902Z,0.10
2018-03-22T23:07:16.207Z,0.10
2018-03-22T23:12:39.358Z,0.10
2018-03-22T23:15:06.547Z,0.10
2018-03-22T23:17:32.977Z,0.10
2018-03-22T23:19:59.410Z,0.10
2018-03-22T23:22:25.840Z,0.10
2018-03-22T23:24:52.280Z,0.10
2018-03-22T23:27:18.737Z,0.10
2018-03-22T23:29:45.134Z,0.10
2018-03-22T23:32:11.572Z,0.10
2018-03-22T23:34:37.997Z,0.10
2018-03-22T23:37:04.464Z,0.10
2018-03-22T23:39:30.901Z,0.20
2018-03-22T23:41:57.433Z,0.20
2018-03-22T23:44:23.844Z,0.10
2018-03-22T23:46:50.312Z,0.10
2018-03-22T23:49:16.792Z,0.10
2018-03-22T23:51:43.956Z,0.10
2018-03-22T23:54:11.129Z,0.10
2018-03-22T23:56:37.608Z,0.10
2018-03-22T23:59:04.025Z,0.10
